sensor_id;sensor_type;location;lat;lon;timestamp;P1;durP1;ratioP1;P2;durP2;ratioP2
6251;SDS011;3159;52.414;9.784;2024-01-06T00:01:03;15.90;;;11.43;;
6251;SDS011;3159;52.414;9.784;2024-01-06T00:03:30;15.03;;;11.93;;
6251;SDS011;3159;52.414;9.784;2024-01-06T00:05:58;16.40;;;11.60;;
6251;SDS011;3159;52.414;9.784;2024-01-06T00:08:26;15.13;;;11.50;;
6251;SDS011;3159;52.414;9.784;2024-01-06T00:10:53;16.83;;;11.00;;
6251;SDS011;3159;52.414;9.784;2024-01-06T00:13:21;15.77;;;11.60;;
6251;SDS011;3159;52.414;9.784;2024-01-06T00:15:48;13.20;;;10.33;;
6251;SDS011;3159;52.414;9.784;2024-01-06T00:18:15;13.97;;;10.00;;
6251;SDS011;3159;52.414;9.784;2024-01-06T00:20:42;13.73;;;10.10;;
6251;SDS011;3159;52.414;9.784;2024-01-06T00:23:10;15.67;;;11.30;;
6251;SDS011;3159;52.414;9.784;2024-01-06T00:25:37;15.93;;;10.43;;
6251;SDS011;3159;52.414;9.784;2024-01-06T00:28:04;18.43;;;12.07;;
6251;SDS011;3159;52.414;9.784;2024-01-06T00:30:31;16.67;;;11.10;;
6251;SDS011;3159;52.414;9.784;2024-01-06T00:32:58;15.23;;;10.83;;
6251;SDS011;3159;52.414;9.784;2024-01-06T00:35:27;14.37;;;10.27;;
6251;SDS011;3159;52.414;9.784;2024-01-06T00:37:54;17.23;;;10.73;;
6251;SDS011;3159;52.414;9.784;2024-01-06T00:40:23;14.23;;;10.07;;
6251;SDS011;3159;52.414;9.784;2024-01-06T00:42:50;13.90;;;10.33;;
6251;SDS011;3159;52.414;9.784;2024-01-06T00:45:17;14.97;;;10.63;;
6251;SDS011;3159;52.414;9.784;2024-01-06T00:47:44;13.77;;;10.47;;
6251;SDS011;3159;52.414;9.784;2024-01-06T00:50:11;14.43;;;11.20;;
6251;SDS011;3159;52.414;9.784;2024-01-06T00:52:38;15.73;;;10.80;;
6251;SDS011;3159;52.414;9.784;2024-01-06T00:55:05;15.33;;;10.37;;
6251;SDS011;3159;52.414;9.784;2024-01-06T00:57:34;15.23;;;10.80;;
6251;SDS011;3159;52.414;9.784;2024-01-06T01:00:02;13.77;;;10.40;;
6251;SDS011;3159;52.414;9.784;2024-01-06T01:02:30;15.60;;;10.73;;
6251;SDS011;3159;52.414;9.784;2024-01-06T01:04:57;13.67;;;10.20;;
6251;SDS011;3159;52.414;9.784;2024-01-06T01:07:24;16.80;;;11.23;;
6251;SDS011;3159;52.414;9.784;2024-01-06T01:09:52;15.73;;;11.20;;
6251;SDS011;3159;52.414;9.784;2024-01-06T01:12:19;13.63;;;10.03;;
6251;SDS011;3159;52.414;9.784;2024-01-06T01:14:48;16.17;;;11.23;;
6251;SDS011;3159;52.414;9.784;2024-01-06T01:17:15;15.37;;;10.90;;
6251;SDS011;3159;52.414;9.784;2024-01-06T01:19:42;13.30;;;9.97;;
6251;SDS011;3159;52.414;9.784;2024-01-06T01:22:09;14.50;;;10.50;;
6251;SDS011;3159;52.414;9.784;2024-01-06T01:24:37;13.87;;;10.00;;
6251;SDS011;3159;52.414;9.784;2024-01-06T01:27:04;13.97;;;9.90;;
6251;SDS011;3159;52.414;9.784;2024-01-06T01:29:31;12.27;;;9.13;;
6251;SDS011;3159;52.414;9.784;2024-01-06T01:32:00;14.47;;;10.17;;
6251;SDS011;3159;52.414;9.784;2024-01-06T01:34:27;13.87;;;9.77;;
6251;SDS011;3159;52.414;9.784;2024-01-06T01:36:54;13.03;;;10.00;;
6251;SDS011;3159;52.414;9.784;2024-01-06T01:39:21;13.00;;;9.53;;
6251;SDS011;3159;52.414;9.784;2024-01-06T01:41:49;17.33;;;9.83;;
6251;SDS011;3159;52.414;9.784;2024-01-06T01:44:16;13.20;;;9.67;;
6251;SDS011;3159;52.414;9.784;2024-01-06T01:46:43;14.30;;;10.03;;
6251;SDS011;3159;52.414;9.784;2024-01-06T01:49:12;12.93;;;9.63;;
6251;SDS011;3159;52.414;9.784;2024-01-06T01:51:39;15.03;;;10.40;;
6251;SDS011;3159;52.414;9.784;2024-01-06T01:54:08;13.00;;;9.43;;
6251;SDS011;3159;52.414;9.784;2024-01-06T01:56:36;13.00;;;9.73;;
6251;SDS011;3159;52.414;9.784;2024-01-06T01:59:06;12.77;;;9.30;;
6251;SDS011;3159;52.414;9.784;2024-01-06T02:01:38;13.60;;;9.93;;
6251;SDS011;3159;52.414;9.784;2024-01-06T02:04:06;12.33;;;9.07;;
6251;SDS011;3159;52.414;9.784;2024-01-06T02:06:35;16.03;;;9.97;;
6251;SDS011;3159;52.414;9.784;2024-01-06T02:09:02;15.67;;;10.53;;
6251;SDS011;3159;52.414;9.784;2024-01-06T02:11:30;13.87;;;9.77;;
6251;SDS011;3159;52.414;9.784;2024-01-06T02:13:57;14.70;;;10.37;;
6251;SDS011;3159;52.414;9.784;2024-01-06T02:16:25;14.67;;;10.13;;
6251;SDS011;3159;52.414;9.784;2024-01-06T02:18:52;12.70;;;9.30;;
6251;SDS011;3159;52.414;9.784;2024-01-06T02:21:19;16.77;;;11.53;;
6251;SDS011;3159;52.414;9.784;2024-01-06T02:23:49;18.63;;;10.90;;
6251;SDS011;3159;52.414;9.784;2024-01-06T02:26:16;15.77;;;10.13;;
6251;SDS011;3159;52.414;9.784;2024-01-06T02:28:43;14.87;;;10.03;;
6251;SDS011;3159;52.414;9.784;2024-01-06T02:31:13;15.20;;;10.27;;
6251;SDS011;3159;52.414;9.784;2024-01-06T02:33:40;13.10;;;9.80;;
6251;SDS011;3159;52.414;9.784;2024-01-06T02:36:08;15.77;;;10.33;;
6251;SDS011;3159;52.414;9.784;2024-01-06T02:38:35;14.00;;;9.50;;
6251;SDS011;3159;52.414;9.784;2024-01-06T02:41:05;15.93;;;10.43;;
6251;SDS011;3159;52.414;9.784;2024-01-06T02:43:32;13.90;;;9.93;;
6251;SDS011;3159;52.414;9.784;2024-01-06T02:45:59;15.47;;;10.40;;
6251;SDS011;3159;52.414;9.784;2024-01-06T02:48:26;13.20;;;9.40;;
6251;SDS011;3159;52.414;9.784;2024-01-06T02:50:55;16.87;;;10.73;;
6251;SDS011;3159;52.414;9.784;2024-01-06T02:53:22;14.33;;;10.43;;
6251;SDS011;3159;52.414;9.784;2024-01-06T02:55:49;18.20;;;10.87;;
6251;SDS011;3159;52.414;9.784;2024-01-06T02:58:17;14.93;;;11.37;;
6251;SDS011;3159;52.414;9.784;2024-01-06T03:00:44;14.83;;;10.73;;
6251;SDS011;3159;52.414;9.784;2024-01-06T03:03:11;15.10;;;11.00;;
6251;SDS011;3159;52.414;9.784;2024-01-06T03:05:38;13.77;;;10.10;;
6251;SDS011;3159;52.414;9.784;2024-01-06T03:08:05;15.57;;;11.23;;
6251;SDS011;3159;52.414;9.784;2024-01-06T03:10:32;19.17;;;11.57;;
6251;SDS011;3159;52.414;9.784;2024-01-06T03:13:01;16.17;;;10.77;;
6251;SDS011;3159;52.414;9.784;2024-01-06T03:15:30;17.77;;;11.57;;
6251;SDS011;3159;52.414;9.784;2024-01-06T03:17:57;15.83;;;11.33;;
6251;SDS011;3159;52.414;9.784;2024-01-06T03:20:24;17.53;;;11.93;;
6251;SDS011;3159;52.414;9.784;2024-01-06T03:22:51;18.80;;;12.03;;
6251;SDS011;3159;52.414;9.784;2024-01-06T03:25:18;17.53;;;11.90;;
6251;SDS011;3159;52.414;9.784;2024-01-06T03:27:44;16.47;;;12.03;;
6251;SDS011;3159;52.414;9.784;2024-01-06T03:30:13;20.07;;;13.47;;
6251;SDS011;3159;52.414;9.784;2024-01-06T03:32:41;22.47;;;12.90;;
6251;SDS011;3159;52.414;9.784;2024-01-06T03:35:09;15.53;;;10.90;;
6251;SDS011;3159;52.414;9.784;2024-01-06T03:37:36;21.57;;;12.27;;
6251;SDS011;3159;52.414;9.784;2024-01-06T03:40:03;18.13;;;12.87;;
6251;SDS011;3159;52.414;9.784;2024-01-06T03:42:31;18.40;;;12.47;;
6251;SDS011;3159;52.414;9.784;2024-01-06T03:44:58;20.07;;;11.90;;
6251;SDS011;3159;52.414;9.784;2024-01-06T03:47:25;16.27;;;11.60;;
6251;SDS011;3159;52.414;9.784;2024-01-06T03:49:53;16.80;;;11.70;;
6251;SDS011;3159;52.414;9.784;2024-01-06T03:52:20;17.20;;;11.63;;
6251;SDS011;3159;52.414;9.784;2024-01-06T03:54:47;19.40;;;12.40;;
6251;SDS011;3159;52.414;9.784;2024-01-06T03:57:14;19.10;;;12.93;;
6251;SDS011;3159;52.414;9.784;2024-01-06T03:59:42;18.23;;;12.17;;
6251;SDS011;3159;52.414;9.784;2024-01-06T04:02:09;17.30;;;12.70;;
6251;SDS011;3159;52.414;9.784;2024-01-06T04:04:36;19.57;;;12.13;;
6251;SDS011;3159;52.414;9.784;2024-01-06T04:07:05;17.43;;;12.53;;
6251;SDS011;3159;52.414;9.784;2024-01-06T04:09:32;21.03;;;12.50;;
6251;SDS011;3159;52.414;9.784;2024-01-06T04:11:59;18.77;;;12.50;;
6251;SDS011;3159;52.414;9.784;2024-01-06T04:14:27;19.47;;;13.03;;
6251;SDS011;3159;52.414;9.784;2024-01-06T04:16:54;19.47;;;12.50;;
6251;SDS011;3159;52.414;9.784;2024-01-06T04:19:21;19.27;;;12.43;;
6251;SDS011;3159;52.414;9.784;2024-01-06T04:21:48;22.27;;;13.63;;
6251;SDS011;3159;52.414;9.784;2024-01-06T04:24:16;17.77;;;12.63;;
6251;SDS011;3159;52.414;9.784;2024-01-06T04:26:44;19.90;;;13.17;;
6251;SDS011;3159;52.414;9.784;2024-01-06T04:29:11;22.03;;;13.70;;
6251;SDS011;3159;52.414;9.784;2024-01-06T04:31:38;21.23;;;12.90;;
6251;SDS011;3159;52.414;9.784;2024-01-06T04:34:06;22.73;;;13.37;;
6251;SDS011;3159;52.414;9.784;2024-01-06T04:36:33;19.80;;;12.53;;
6251;SDS011;3159;52.414;9.784;2024-01-06T04:39:01;21.17;;;13.43;;
6251;SDS011;3159;52.414;9.784;2024-01-06T04:41:30;21.27;;;12.97;;
6251;SDS011;3159;52.414;9.784;2024-01-06T04:43:57;23.77;;;13.80;;
6251;SDS011;3159;52.414;9.784;2024-01-06T04:46:26;23.00;;;14.13;;
6251;SDS011;3159;52.414;9.784;2024-01-06T04:48:53;20.27;;;13.07;;
6251;SDS011;3159;52.414;9.784;2024-01-06T04:51:20;20.27;;;12.97;;
6251;SDS011;3159;52.414;9.784;2024-01-06T04:53:48;23.53;;;13.33;;
6251;SDS011;3159;52.414;9.784;2024-01-06T04:56:15;20.73;;;13.50;;
6251;SDS011;3159;52.414;9.784;2024-01-06T04:58:44;19.80;;;12.73;;
6251;SDS011;3159;52.414;9.784;2024-01-06T05:01:11;23.80;;;13.27;;
6251;SDS011;3159;52.414;9.784;2024-01-06T05:03:38;21.30;;;13.73;;
6251;SDS011;3159;52.414;9.784;2024-01-06T05:06:07;21.37;;;13.30;;
6251;SDS011;3159;52.414;9.784;2024-01-06T05:08:34;18.83;;;11.83;;
6251;SDS011;3159;52.414;9.784;2024-01-06T05:11:04;20.30;;;12.57;;
6251;SDS011;3159;52.414;9.784;2024-01-06T05:13:32;18.93;;;12.00;;
6251;SDS011;3159;52.414;9.784;2024-01-06T05:16:00;21.07;;;13.10;;
6251;SDS011;3159;52.414;9.784;2024-01-06T05:18:27;20.53;;;12.87;;
6251;SDS011;3159;52.414;9.784;2024-01-06T05:20:54;26.10;;;14.33;;
6251;SDS011;3159;52.414;9.784;2024-01-06T05:23:22;22.13;;;13.53;;
6251;SDS011;3159;52.414;9.784;2024-01-06T05:25:49;22.53;;;14.47;;
6251;SDS011;3159;52.414;9.784;2024-01-06T05:28:15;25.90;;;14.37;;
6251;SDS011;3159;52.414;9.784;2024-01-06T05:30:42;21.07;;;13.53;;
6251;SDS011;3159;52.414;9.784;2024-01-06T05:33:11;24.90;;;14.00;;
6251;SDS011;3159;52.414;9.784;2024-01-06T05:35:40;20.17;;;12.83;;
6251;SDS011;3159;52.414;9.784;2024-01-06T05:38:07;19.97;;;12.60;;
6251;SDS011;3159;52.414;9.784;2024-01-06T05:40:34;19.93;;;11.43;;
6251;SDS011;3159;52.414;9.784;2024-01-06T05:43:01;21.20;;;13.37;;
6251;SDS011;3159;52.414;9.784;2024-01-06T05:45:28;20.20;;;12.97;;
6251;SDS011;3159;52.414;9.784;2024-01-06T05:47:54;20.83;;;13.40;;
6251;SDS011;3159;52.414;9.784;2024-01-06T05:50:23;23.83;;;13.10;;
6251;SDS011;3159;52.414;9.784;2024-01-06T05:52:50;20.50;;;13.03;;
6251;SDS011;3159;52.414;9.784;2024-01-06T05:55:17;22.07;;;12.40;;
6251;SDS011;3159;52.414;9.784;2024-01-06T05:57:45;21.53;;;12.90;;
6251;SDS011;3159;52.414;9.784;2024-01-06T06:00:12;17.97;;;11.70;;
6251;SDS011;3159;52.414;9.784;2024-01-06T06:02:39;19.40;;;11.77;;
6251;SDS011;3159;52.414;9.784;2024-01-06T06:05:07;17.63;;;12.13;;
6251;SDS011;3159;52.414;9.784;2024-01-06T06:07:37;22.47;;;13.33;;
6251;SDS011;3159;52.414;9.784;2024-01-06T06:10:05;21.40;;;13.20;;
6251;SDS011;3159;52.414;9.784;2024-01-06T06:12:33;20.80;;;13.53;;
6251;SDS011;3159;52.414;9.784;2024-01-06T06:15:01;23.13;;;13.10;;
6251;SDS011;3159;52.414;9.784;2024-01-06T06:17:28;20.43;;;13.50;;
6251;SDS011;3159;52.414;9.784;2024-01-06T06:19:56;22.20;;;13.90;;
6251;SDS011;3159;52.414;9.784;2024-01-06T06:22:23;23.17;;;13.27;;
6251;SDS011;3159;52.414;9.784;2024-01-06T06:24:56;20.57;;;13.40;;
6251;SDS011;3159;52.414;9.784;2024-01-06T06:27:23;27.53;;;17.00;;
6251;SDS011;3159;52.414;9.784;2024-01-06T06:29:50;23.17;;;13.13;;
6251;SDS011;3159;52.414;9.784;2024-01-06T06:32:17;23.63;;;14.20;;
6251;SDS011;3159;52.414;9.784;2024-01-06T06:34:45;23.03;;;13.27;;
6251;SDS011;3159;52.414;9.784;2024-01-06T06:37:12;22.13;;;13.63;;
6251;SDS011;3159;52.414;9.784;2024-01-06T06:39:39;24.93;;;13.70;;
6251;SDS011;3159;52.414;9.784;2024-01-06T06:42:08;22.50;;;13.77;;
6251;SDS011;3159;52.414;9.784;2024-01-06T06:44:36;24.57;;;14.77;;
6251;SDS011;3159;52.414;9.784;2024-01-06T06:47:03;23.40;;;14.17;;
6251;SDS011;3159;52.414;9.784;2024-01-06T06:49:30;23.97;;;13.40;;
6251;SDS011;3159;52.414;9.784;2024-01-06T06:51:57;23.63;;;14.70;;
6251;SDS011;3159;52.414;9.784;2024-01-06T06:54:24;23.17;;;13.60;;
6251;SDS011;3159;52.414;9.784;2024-01-06T06:56:51;23.00;;;14.17;;
6251;SDS011;3159;52.414;9.784;2024-01-06T06:59:20;24.83;;;14.67;;
6251;SDS011;3159;52.414;9.784;2024-01-06T07:01:47;24.33;;;14.63;;
6251;SDS011;3159;52.414;9.784;2024-01-06T07:04:14;22.43;;;13.37;;
6251;SDS011;3159;52.414;9.784;2024-01-06T07:06:41;24.13;;;13.40;;
6251;SDS011;3159;52.414;9.784;2024-01-06T07:09:07;24.70;;;13.90;;
6251;SDS011;3159;52.414;9.784;2024-01-06T07:11:34;21.80;;;14.70;;
6251;SDS011;3159;52.414;9.784;2024-01-06T07:14:01;23.87;;;14.47;;
6251;SDS011;3159;52.414;9.784;2024-01-06T07:16:30;22.77;;;13.87;;
6251;SDS011;3159;52.414;9.784;2024-01-06T07:18:58;24.60;;;14.70;;
6251;SDS011;3159;52.414;9.784;2024-01-06T07:21:24;26.27;;;14.17;;
6251;SDS011;3159;52.414;9.784;2024-01-06T07:23:51;24.53;;;13.57;;
6251;SDS011;3159;52.414;9.784;2024-01-06T07:26:18;26.63;;;15.40;;
6251;SDS011;3159;52.414;9.784;2024-01-06T07:28:47;22.53;;;13.80;;
6251;SDS011;3159;52.414;9.784;2024-01-06T07:31:14;26.27;;;14.60;;
6251;SDS011;3159;52.414;9.784;2024-01-06T07:33:44;25.53;;;14.57;;
6251;SDS011;3159;52.414;9.784;2024-01-06T07:36:11;25.27;;;13.90;;
6251;SDS011;3159;52.414;9.784;2024-01-06T07:38:38;23.93;;;13.77;;
6251;SDS011;3159;52.414;9.784;2024-01-06T07:41:06;25.27;;;14.20;;
6251;SDS011;3159;52.414;9.784;2024-01-06T07:43:33;24.73;;;14.10;;
6251;SDS011;3159;52.414;9.784;2024-01-06T07:46:00;23.53;;;14.03;;
6251;SDS011;3159;52.414;9.784;2024-01-06T07:48:28;22.63;;;13.37;;
6251;SDS011;3159;52.414;9.784;2024-01-06T07:50:57;24.73;;;13.13;;
6251;SDS011;3159;52.414;9.784;2024-01-06T07:53:24;25.47;;;14.03;;
6251;SDS011;3159;52.414;9.784;2024-01-06T07:55:51;25.10;;;13.43;;
6251;SDS011;3159;52.414;9.784;2024-01-06T07:58:18;22.60;;;13.37;;
6251;SDS011;3159;52.414;9.784;2024-01-06T08:00:47;21.47;;;13.83;;
6251;SDS011;3159;52.414;9.784;2024-01-06T08:03:14;24.33;;;13.23;;
6251;SDS011;3159;52.414;9.784;2024-01-06T08:05:41;19.67;;;11.50;;
6251;SDS011;3159;52.414;9.784;2024-01-06T08:08:10;24.10;;;13.00;;
6251;SDS011;3159;52.414;9.784;2024-01-06T08:10:38;18.57;;;11.40;;
6251;SDS011;3159;52.414;9.784;2024-01-06T08:13:05;20.80;;;12.37;;
6251;SDS011;3159;52.414;9.784;2024-01-06T08:15:32;21.90;;;11.97;;
6251;SDS011;3159;52.414;9.784;2024-01-06T08:17:59;22.80;;;12.57;;
6251;SDS011;3159;52.414;9.784;2024-01-06T08:21:47;19.10;;;11.87;;
6251;SDS011;3159;52.414;9.784;2024-01-06T08:24:14;18.40;;;11.00;;
6251;SDS011;3159;52.414;9.784;2024-01-06T08:26:41;18.03;;;10.63;;
6251;SDS011;3159;52.414;9.784;2024-01-06T08:29:08;18.70;;;10.60;;
6251;SDS011;3159;52.414;9.784;2024-01-06T08:31:35;18.80;;;11.43;;
6251;SDS011;3159;52.414;9.784;2024-01-06T08:34:01;18.50;;;11.17;;
6251;SDS011;3159;52.414;9.784;2024-01-06T08:36:31;16.17;;;10.27;;
6251;SDS011;3159;52.414;9.784;2024-01-06T08:38:58;18.83;;;10.27;;
6251;SDS011;3159;52.414;9.784;2024-01-06T08:41:26;16.33;;;10.07;;
6251;SDS011;3159;52.414;9.784;2024-01-06T08:43:52;15.37;;;10.13;;
6251;SDS011;3159;52.414;9.784;2024-01-06T08:46:19;20.53;;;11.67;;
6251;SDS011;3159;52.414;9.784;2024-01-06T08:48:46;14.57;;;9.17;;
6251;SDS011;3159;52.414;9.784;2024-01-06T08:51:13;15.97;;;10.80;;
6251;SDS011;3159;52.414;9.784;2024-01-06T08:53:40;16.93;;;11.10;;
6251;SDS011;3159;52.414;9.784;2024-01-06T08:56:07;16.03;;;10.30;;
6251;SDS011;3159;52.414;9.784;2024-01-06T08:58:36;16.73;;;10.00;;
6251;SDS011;3159;52.414;9.784;2024-01-06T09:01:02;16.60;;;9.70;;
6251;SDS011;3159;52.414;9.784;2024-01-06T09:03:29;15.10;;;9.23;;
6251;SDS011;3159;52.414;9.784;2024-01-06T09:05:56;14.13;;;9.37;;
6251;SDS011;3159;52.414;9.784;2024-01-06T09:08:23;16.20;;;9.77;;
6251;SDS011;3159;52.414;9.784;2024-01-06T09:10:50;18.07;;;9.73;;
6251;SDS011;3159;52.414;9.784;2024-01-06T09:13:20;17.20;;;10.27;;
6251;SDS011;3159;52.414;9.784;2024-01-06T09:15:49;17.97;;;10.03;;
6251;SDS011;3159;52.414;9.784;2024-01-06T09:18:16;15.57;;;10.07;;
6251;SDS011;3159;52.414;9.784;2024-01-06T09:20:43;17.73;;;9.83;;
6251;SDS011;3159;52.414;9.784;2024-01-06T09:23:12;16.80;;;10.00;;
6251;SDS011;3159;52.414;9.784;2024-01-06T09:25:39;13.47;;;8.73;;
6251;SDS011;3159;52.414;9.784;2024-01-06T09:28:06;14.47;;;9.50;;
6251;SDS011;3159;52.414;9.784;2024-01-06T09:30:33;15.40;;;9.57;;
6251;SDS011;3159;52.414;9.784;2024-01-06T09:33:01;14.60;;;9.07;;
6251;SDS011;3159;52.414;9.784;2024-01-06T09:35:28;13.67;;;9.70;;
6251;SDS011;3159;52.414;9.784;2024-01-06T09:37:55;14.57;;;9.40;;
6251;SDS011;3159;52.414;9.784;2024-01-06T09:40:22;15.63;;;10.03;;
6251;SDS011;3159;52.414;9.784;2024-01-06T09:42:50;16.33;;;9.63;;
6251;SDS011;3159;52.414;9.784;2024-01-06T09:45:18;15.30;;;9.50;;
6251;SDS011;3159;52.414;9.784;2024-01-06T09:47:47;17.60;;;10.43;;
6251;SDS011;3159;52.414;9.784;2024-01-06T09:50:17;16.10;;;9.27;;
6251;SDS011;3159;52.414;9.784;2024-01-06T09:52:45;16.17;;;10.00;;
6251;SDS011;3159;52.414;9.784;2024-01-06T09:55:18;14.30;;;9.07;;
6251;SDS011;3159;52.414;9.784;2024-01-06T09:57:51;13.83;;;9.53;;
6251;SDS011;3159;52.414;9.784;2024-01-06T10:00:18;14.00;;;8.90;;
6251;SDS011;3159;52.414;9.784;2024-01-06T10:02:45;15.13;;;8.63;;
6251;SDS011;3159;52.414;9.784;2024-01-06T10:05:13;14.87;;;9.63;;
6251;SDS011;3159;52.414;9.784;2024-01-06T10:07:42;15.30;;;8.93;;
6251;SDS011;3159;52.414;9.784;2024-01-06T10:10:10;16.57;;;9.30;;
6251;SDS011;3159;52.414;9.784;2024-01-06T10:12:37;15.23;;;9.07;;
6251;SDS011;3159;52.414;9.784;2024-01-06T10:15:06;14.40;;;9.17;;
6251;SDS011;3159;52.414;9.784;2024-01-06T10:17:35;13.23;;;8.53;;
6251;SDS011;3159;52.414;9.784;2024-01-06T10:20:03;13.47;;;8.80;;
6251;SDS011;3159;52.414;9.784;2024-01-06T10:22:34;15.60;;;8.50;;
6251;SDS011;3159;52.414;9.784;2024-01-06T10:25:03;12.83;;;8.20;;
6251;SDS011;3159;52.414;9.784;2024-01-06T10:27:33;13.83;;;8.97;;
6251;SDS011;3159;52.414;9.784;2024-01-06T10:30:01;12.33;;;8.40;;
6251;SDS011;3159;52.414;9.784;2024-01-06T10:32:30;13.33;;;8.20;;
6251;SDS011;3159;52.414;9.784;2024-01-06T10:34:57;13.07;;;8.70;;
6251;SDS011;3159;52.414;9.784;2024-01-06T10:37:26;12.87;;;8.63;;
6251;SDS011;3159;52.414;9.784;2024-01-06T10:40:06;12.97;;;7.83;;
6251;SDS011;3159;52.414;9.784;2024-01-06T10:42:33;14.67;;;8.17;;
6251;SDS011;3159;52.414;9.784;2024-01-06T10:45:02;13.33;;;8.67;;
6251;SDS011;3159;52.414;9.784;2024-01-06T10:47:29;12.17;;;7.83;;
6251;SDS011;3159;52.414;9.784;2024-01-06T10:49:58;13.80;;;8.20;;
6251;SDS011;3159;52.414;9.784;2024-01-06T10:52:26;15.60;;;8.87;;
6251;SDS011;3159;52.414;9.784;2024-01-06T10:54:53;13.10;;;8.47;;
6251;SDS011;3159;52.414;9.784;2024-01-06T10:57:22;12.63;;;8.23;;
6251;SDS011;3159;52.414;9.784;2024-01-06T10:59:50;13.67;;;8.67;;
6251;SDS011;3159;52.414;9.784;2024-01-06T11:02:18;14.40;;;8.80;;
6251;SDS011;3159;52.414;9.784;2024-01-06T11:04:45;12.47;;;8.37;;
6251;SDS011;3159;52.414;9.784;2024-01-06T11:07:13;16.33;;;9.13;;
6251;SDS011;3159;52.414;9.784;2024-01-06T11:09:41;13.10;;;8.77;;
6251;SDS011;3159;52.414;9.784;2024-01-06T11:12:13;12.10;;;8.67;;
6251;SDS011;3159;52.414;9.784;2024-01-06T11:14:42;15.70;;;9.03;;
6251;SDS011;3159;52.414;9.784;2024-01-06T11:17:10;15.77;;;8.67;;
6251;SDS011;3159;52.414;9.784;2024-01-06T11:19:44;17.33;;;9.80;;
6251;SDS011;3159;52.414;9.784;2024-01-06T11:25:05;15.13;;;8.73;;
6251;SDS011;3159;52.414;9.784;2024-01-06T11:27:33;16.93;;;9.07;;
6251;SDS011;3159;52.414;9.784;2024-01-06T11:30:02;15.47;;;9.57;;
6251;SDS011;3159;52.414;9.784;2024-01-06T11:32:31;18.43;;;10.53;;
6251;SDS011;3159;52.414;9.784;2024-01-06T11:35:07;19.03;;;10.93;;
6251;SDS011;3159;52.414;9.784;2024-01-06T11:37:37;17.20;;;9.67;;
6251;SDS011;3159;52.414;9.784;2024-01-06T11:40:22;16.17;;;10.37;;
6251;SDS011;3159;52.414;9.784;2024-01-06T11:42:56;19.37;;;11.60;;
6251;SDS011;3159;52.414;9.784;2024-01-06T11:45:25;18.07;;;10.73;;
6251;SDS011;3159;52.414;9.784;2024-01-06T11:47:54;17.57;;;10.80;;
6251;SDS011;3159;52.414;9.784;2024-01-06T11:50:21;17.43;;;9.93;;
6251;SDS011;3159;52.414;9.784;2024-01-06T11:52:48;18.47;;;11.13;;
6251;SDS011;3159;52.414;9.784;2024-01-06T11:55:16;19.67;;;11.30;;
6251;SDS011;3159;52.414;9.784;2024-01-06T11:57:44;18.80;;;11.37;;
6251;SDS011;3159;52.414;9.784;2024-01-06T12:00:12;21.63;;;12.23;;
6251;SDS011;3159;52.414;9.784;2024-01-06T12:02:41;20.77;;;12.27;;
6251;SDS011;3159;52.414;9.784;2024-01-06T12:05:12;19.53;;;11.40;;
6251;SDS011;3159;52.414;9.784;2024-01-06T12:07:40;21.63;;;11.70;;
6251;SDS011;3159;52.414;9.784;2024-01-06T12:10:07;20.90;;;11.60;;
6251;SDS011;3159;52.414;9.784;2024-01-06T12:12:35;22.27;;;12.20;;
6251;SDS011;3159;52.414;9.784;2024-01-06T12:15:02;23.03;;;12.13;;
6251;SDS011;3159;52.414;9.784;2024-01-06T12:17:30;19.63;;;11.80;;
6251;SDS011;3159;52.414;9.784;2024-01-06T12:19:58;20.13;;;11.70;;
6251;SDS011;3159;52.414;9.784;2024-01-06T12:22:25;18.30;;;11.37;;
6251;SDS011;3159;52.414;9.784;2024-01-06T12:24:52;20.37;;;11.87;;
6251;SDS011;3159;52.414;9.784;2024-01-06T12:27:19;19.73;;;11.37;;
6251;SDS011;3159;52.414;9.784;2024-01-06T12:29:47;21.63;;;12.10;;
6251;SDS011;3159;52.414;9.784;2024-01-06T12:32:14;19.30;;;11.30;;
6251;SDS011;3159;52.414;9.784;2024-01-06T12:34:40;24.20;;;13.07;;
6251;SDS011;3159;52.414;9.784;2024-01-06T12:37:09;20.07;;;12.13;;
6251;SDS011;3159;52.414;9.784;2024-01-06T12:39:36;21.73;;;12.87;;
6251;SDS011;3159;52.414;9.784;2024-01-06T12:42:03;18.30;;;12.20;;
6251;SDS011;3159;52.414;9.784;2024-01-06T12:44:30;21.00;;;12.97;;
6251;SDS011;3159;52.414;9.784;2024-01-06T12:46:58;21.20;;;12.53;;
6251;SDS011;3159;52.414;9.784;2024-01-06T12:49:25;22.30;;;12.47;;
6251;SDS011;3159;52.414;9.784;2024-01-06T12:51:52;21.33;;;11.63;;
6251;SDS011;3159;52.414;9.784;2024-01-06T12:54:20;20.83;;;12.30;;
6251;SDS011;3159;52.414;9.784;2024-01-06T12:56:47;18.43;;;10.93;;
6251;SDS011;3159;52.414;9.784;2024-01-06T12:59:14;21.87;;;10.57;;
6251;SDS011;3159;52.414;9.784;2024-01-06T13:01:41;19.43;;;11.53;;
6251;SDS011;3159;52.414;9.784;2024-01-06T13:04:08;22.10;;;11.83;;
6251;SDS011;3159;52.414;9.784;2024-01-06T13:06:35;21.77;;;11.27;;
6251;SDS011;3159;52.414;9.784;2024-01-06T13:09:02;21.67;;;11.63;;
6251;SDS011;3159;52.414;9.784;2024-01-06T13:11:33;17.00;;;10.83;;
6251;SDS011;3159;52.414;9.784;2024-01-06T13:14:01;19.23;;;12.10;;
6251;SDS011;3159;52.414;9.784;2024-01-06T13:16:28;20.47;;;11.40;;
6251;SDS011;3159;52.414;9.784;2024-01-06T13:18:55;17.03;;;11.20;;
6251;SDS011;3159;52.414;9.784;2024-01-06T13:21:20;23.27;;;11.80;;
6251;SDS011;3159;52.414;9.784;2024-01-06T13:23:47;19.80;;;11.00;;
6251;SDS011;3159;52.414;9.784;2024-01-06T13:26:14;21.77;;;11.97;;
6251;SDS011;3159;52.414;9.784;2024-01-06T13:28:42;20.40;;;11.17;;
6251;SDS011;3159;52.414;9.784;2024-01-06T13:31:09;20.43;;;11.47;;
6251;SDS011;3159;52.414;9.784;2024-01-06T13:33:36;20.57;;;11.70;;
6251;SDS011;3159;52.414;9.784;2024-01-06T13:36:03;17.90;;;11.03;;
6251;SDS011;3159;52.414;9.784;2024-01-06T13:38:31;17.47;;;11.00;;
6251;SDS011;3159;52.414;9.784;2024-01-06T13:40:58;18.13;;;10.53;;
6251;SDS011;3159;52.414;9.784;2024-01-06T13:43:25;18.53;;;11.40;;
6251;SDS011;3159;52.414;9.784;2024-01-06T13:45:53;16.97;;;10.87;;
6251;SDS011;3159;52.414;9.784;2024-01-06T13:48:21;19.83;;;11.20;;
6251;SDS011;3159;52.414;9.784;2024-01-06T13:50:47;18.17;;;10.20;;
6251;SDS011;3159;52.414;9.784;2024-01-06T13:53:14;17.63;;;10.27;;
6251;SDS011;3159;52.414;9.784;2024-01-06T13:55:41;18.83;;;11.57;;
6251;SDS011;3159;52.414;9.784;2024-01-06T13:58:08;18.17;;;10.30;;
6251;SDS011;3159;52.414;9.784;2024-01-06T14:00:35;16.70;;;9.73;;
6251;SDS011;3159;52.414;9.784;2024-01-06T14:03:04;14.87;;;9.77;;
6251;SDS011;3159;52.414;9.784;2024-01-06T14:05:32;18.93;;;11.50;;
6251;SDS011;3159;52.414;9.784;2024-01-06T14:08:00;19.23;;;10.57;;
6251;SDS011;3159;52.414;9.784;2024-01-06T14:10:26;17.87;;;10.00;;
6251;SDS011;3159;52.414;9.784;2024-01-06T14:12:54;18.43;;;10.27;;
6251;SDS011;3159;52.414;9.784;2024-01-06T14:15:21;15.23;;;9.93;;
6251;SDS011;3159;52.414;9.784;2024-01-06T14:17:48;17.70;;;10.87;;
6251;SDS011;3159;52.414;9.784;2024-01-06T14:20:18;16.63;;;9.73;;
6251;SDS011;3159;52.414;9.784;2024-01-06T14:22:45;22.70;;;11.20;;
6251;SDS011;3159;52.414;9.784;2024-01-06T14:25:12;17.43;;;9.73;;
6251;SDS011;3159;52.414;9.784;2024-01-06T14:27:39;16.37;;;10.40;;
6251;SDS011;3159;52.414;9.784;2024-01-06T14:30:06;16.97;;;10.33;;
6251;SDS011;3159;52.414;9.784;2024-01-06T14:32:34;19.77;;;10.47;;
6251;SDS011;3159;52.414;9.784;2024-01-06T14:35:02;15.60;;;9.77;;
6251;SDS011;3159;52.414;9.784;2024-01-06T14:37:31;16.87;;;9.67;;
6251;SDS011;3159;52.414;9.784;2024-01-06T14:39:58;18.30;;;10.27;;
6251;SDS011;3159;52.414;9.784;2024-01-06T14:42:29;14.03;;;10.10;;
6251;SDS011;3159;52.414;9.784;2024-01-06T14:44:56;16.43;;;10.50;;
6251;SDS011;3159;52.414;9.784;2024-01-06T14:47:23;15.93;;;10.23;;
6251;SDS011;3159;52.414;9.784;2024-01-06T14:49:50;16.50;;;10.17;;
6251;SDS011;3159;52.414;9.784;2024-01-06T14:52:17;15.97;;;9.93;;
6251;SDS011;3159;52.414;9.784;2024-01-06T14:54:45;17.77;;;9.77;;
6251;SDS011;3159;52.414;9.784;2024-01-06T14:57:13;16.80;;;10.33;;